Time;durP1;ratioP1;P1;durP2;ratioP2;P2;SDS_P1;SDS_P2;PMS_P1;PMS_P2;Temp;Humidity;BMP_temperature;BMP_pressure;BME280_temperature;BME280_humidity;BME280_pressure;Samples;Min_cycle;Max_cycle;Signal;HPM_P1;HPM_P2
2022/01/09 00:01:29;;;;;;;9.20;6.88;;;;;;;0.37;100.00;99146.22;5058132;28;20264;-79
2022/01/09 00:03:55;;;;;;;7.85;5.68;;;;;;;0.40;100.00;99150.56;5039622;28;20171;-81
2022/01/09 00:06:21;;;;;;;8.55;5.30;;;;;;;0.43;100.00;99146.97;5074822;28;20170;-80
2022/01/09 00:08:47;;;;;;;7.50;5.22;;;;;;;0.44;100.00;99136.41;5076753;28;20797;-80
2022/01/09 00:11:13;;;;;;;8.82;6.03;;;;;;;0.44;100.00;99139.03;5059108;28;20213;-80
2022/01/09 00:13:42;;;;;;;8.70;5.60;;;;;;;0.46;100.00;99131.97;5058480;28;20258;-80
2022/01/09 00:16:08;;;;;;;9.90;5.97;;;;;;;0.49;100.00;99123.97;5083096;28;20210;-80
2022/01/09 00:18:33;;;;;;;9.05;5.63;;;;;;;0.49;100.00;99117.84;5066043;28;20236;-79
2022/01/09 00:21:05;;;;;;;6.72;5.25;;;;;;;0.53;99.86;99098.44;5048986;28;20242;-79
2022/01/09 00:23:34;;;;;;;9.38;5.88;;;;;;;0.52;99.80;99112.50;5066104;28;20220;-79
2022/01/09 00:26:00;;;;;;;11.98;5.75;;;;;;;0.56;99.64;99116.78;5066308;28;20159;-79
2022/01/09 00:28:26;;;;;;;7.90;5.50;;;;;;;0.55;99.29;99104.53;5059090;28;20302;-80
2022/01/09 00:30:51;;;;;;;10.07;5.60;;;;;;;0.55;99.27;99109.81;5043346;28;20172;-79
2022/01/09 00:33:21;;;;;;;9.60;4.85;;;;;;;0.53;99.06;99109.81;5081219;28;20178;-78
2022/01/09 00:35:46;;;;;;;9.75;4.82;;;;;;;0.56;98.45;99093.94;5060244;28;20195;-78
2022/01/09 00:38:12;;;;;;;9.00;4.70;;;;;;;0.54;98.55;99090.47;5049204;28;20275;-79
2022/01/09 00:40:37;;;;;;;7.18;4.55;;;;;;;0.55;98.79;99101.91;5081314;28;20175;-78
2022/01/09 00:43:08;;;;;;;7.10;5.25;;;;;;;0.57;99.05;99092.19;5081832;28;20167;-79
2022/01/09 00:45:33;;;;;;;11.75;5.35;;;;;;;0.58;98.88;99092.13;5081464;28;20189;-78
2022/01/09 00:47:59;;;;;;;9.73;4.63;;;;;;;0.58;98.76;99091.25;5081186;28;20170;-78
2022/01/09 00:50:24;;;;;;;7.32;4.95;;;;;;;0.59;98.54;99082.44;5060861;28;20175;-79
2022/01/09 00:52:50;;;;;;;8.93;4.90;;;;;;;0.61;98.93;99096.44;5053440;28;20198;-79
2022/01/09 00:55:15;;;;;;;6.95;4.65;;;;;;;0.60;98.60;99071.00;5037909;28;20233;-79
2022/01/09 00:57:47;;;;;;;6.43;4.78;;;;;;;0.50;99.10;99083.53;5038313;28;20213;-81
2022/01/09 01:00:14;;;;;;;9.45;5.03;;;;;;;0.49;99.57;99086.25;5058426;28;20184;-82
2022/01/09 01:02:40;;;;;;;6.95;5.15;;;;;;;0.49;99.59;99079.19;5054486;28;20172;-79
2022/01/09 01:05:07;;;;;;;8.77;5.13;;;;;;;0.46;100.00;99073.13;5057428;28;20540;-79
2022/01/09 01:07:32;;;;;;;8.45;4.90;;;;;;;0.49;99.74;99073.06;5055283;28;20656;-79
2022/01/09 01:09:58;;;;;;;8.13;5.20;;;;;;;0.48;100.00;99074.84;5039451;28;20247;-78
2022/01/09 01:12:25;;;;;;;8.60;5.13;;;;;;;0.47;100.00;99066.97;5059406;28;20266;-80
2022/01/09 01:14:51;;;;;;;8.82;5.30;;;;;;;0.49;100.00;99065.16;5057156;28;20266;-78
2022/01/09 01:17:16;;;;;;;8.55;5.05;;;;;;;0.49;99.84;99075.69;5042236;28;20616;-77
2022/01/09 01:19:42;;;;;;;10.75;5.57;;;;;;;0.49;100.00;99049.34;5062081;28;20199;-78
2022/01/09 01:22:07;;;;;;;8.13;5.25;;;;;;;0.48;100.00;99060.78;5063822;28;20168;-79
2022/01/09 01:24:36;;;;;;;7.32;4.82;;;;;;;0.45;100.00;99045.06;5045041;28;20187;-79
2022/01/09 01:27:02;;;;;;;6.30;5.13;;;;;;;0.47;100.00;99059.06;5045577;28;20252;-79
2022/01/09 01:29:27;;;;;;;6.97;4.97;;;;;;;0.45;100.00;99056.47;5044319;28;20191;-79
2022/01/09 01:31:53;;;;;;;6.60;4.70;;;;;;;0.49;100.00;99041.44;5037150;28;20860;-79
2022/01/09 01:34:22;;;;;;;7.03;4.97;;;;;;;0.51;99.74;99048.41;5053979;28;20213;-80
2022/01/09 01:36:48;;;;;;;6.80;4.68;;;;;;;0.53;99.87;99049.22;5035223;28;20321;-80
2022/01/09 01:39:13;;;;;;;7.78;4.93;;;;;;;0.53;99.55;99045.72;5058541;28;20219;-79
2022/01/09 01:41:39;;;;;;;7.60;5.28;;;;;;;0.53;99.86;99048.38;5024579;28;20183;-80
2022/01/09 01:44:09;;;;;;;8.57;4.63;;;;;;;0.52;99.28;99041.34;5045757;28;20183;-79
2022/01/09 01:46:35;;;;;;;6.57;4.60;;;;;;;0.51;99.92;99044.91;5029711;28;20238;-78
2022/01/09 01:49:01;;;;;;;6.30;4.32;;;;;;;0.51;99.22;99039.63;5054501;28;20191;-80
2022/01/09 01:51:27;;;;;;;10.30;4.80;;;;;;;0.52;99.40;99043.97;5033369;28;20225;-84
2022/01/09 01:53:55;;;;;;;6.70;4.82;;;;;;;0.54;99.09;99043.03;5037982;28;20171;-79
2022/01/09 01:56:21;;;;;;;5.70;4.43;;;;;;;0.57;98.64;99031.56;5035955;28;20199;-80
2022/01/09 01:58:48;;;;;;;5.68;5.07;;;;;;;0.53;98.75;99028.16;5035972;28;20211;-82
2022/01/09 02:01:14;;;;;;;5.80;4.30;;;;;;;0.54;99.01;99043.03;5039419;28;20170;-80
2022/01/09 02:03:39;;;;;;;9.38;4.90;;;;;;;0.58;98.99;99028.88;5041305;28;20179;-79
2022/01/09 02:06:05;;;;;;;6.93;4.45;;;;;;;0.59;98.52;99030.63;5060824;28;20218;-79
2022/01/09 02:08:31;;;;;;;7.32;4.97;;;;;;;0.61;98.33;99036.72;5028227;28;20199;-80
2022/01/09 02:10:57;;;;;;;6.47;5.13;;;;;;;0.64;98.66;99033.13;5023684;28;20225;-79
2022/01/09 02:13:23;;;;;;;7.03;4.75;;;;;;;0.67;98.41;99037.44;5081130;28;20245;-80
2022/01/09 02:15:49;;;;;;;8.15;4.68;;;;;;;0.70;97.56;99032.09;5076258;28;20207;-81
2022/01/09 02:18:21;;;;;;;7.85;4.40;;;;;;;0.72;97.30;99031.16;5058801;28;20186;-80
2022/01/09 02:20:48;;;;;;;4.75;3.85;;;;;;;0.73;97.30;99027.59;5045596;28;20594;-80
2022/01/09 02:23:16;;;;;;;8.20;4.90;;;;;;;0.76;97.15;99024.00;5059084;28;20167;-79
2022/01/09 02:25:43;;;;;;;5.28;4.78;;;;;;;0.74;96.81;99029.31;5076619;28;20171;-80
2022/01/09 02:28:10;;;;;;;8.38;4.45;;;;;;;0.75;97.11;99012.63;5059655;28;20229;-80
2022/01/09 02:30:37;;;;;;;5.40;4.28;;;;;;;0.77;96.94;99028.41;5076846;28;20645;-80
2022/01/09 02:33:11;;;;;;;5.75;3.80;;;;;;;0.79;96.11;99011.63;5077609;28;20662;-80
2022/01/09 02:35:37;;;;;;;7.03;4.63;;;;;;;0.79;95.88;99016.91;5044950;28;20182;-80
2022/01/09 02:38:04;;;;;;;6.97;4.07;;;;;;;0.82;96.43;99016.81;5079167;28;20206;-79
2022/01/09 02:40:31;;;;;;;6.40;4.38;;;;;;;0.86;96.16;99014.97;5062063;28;20240;-80
2022/01/09 02:42:56;;;;;;;5.40;4.50;;;;;;;0.85;96.00;99015.00;5061123;28;20167;-79
2022/01/09 02:45:24;;;;;;;6.70;3.85;;;;;;;0.91;95.75;99020.09;5086638;28;20266;-78
2022/01/09 02:47:52;;;;;;;5.82;3.95;;;;;;;0.85;95.84;99012.34;5070482;28;20243;-79
2022/01/09 02:50:32;;;;;;;4.85;3.65;;;;;;;0.85;95.96;99009.72;5065527;28;20209;-80
2022/01/09 02:53:00;;;;;;;5.28;3.90;;;;;;;0.87;95.66;99013.19;5059481;28;20237;-80
2022/01/09 02:55:27;;;;;;;5.35;3.95;;;;;;;0.88;95.23;99012.28;5086487;28;20259;-80
2022/01/09 02:58:00;;;;;;;7.78;3.97;;;;;;;0.89;94.93;99000.81;5086011;28;20187;-79
2022/01/09 03:00:31;;;;;;;6.53;3.50;;;;;;;0.92;94.59;99008.63;5061553;28;20177;-81
2022/01/09 03:02:57;;;;;;;5.07;3.95;;;;;;;0.89;95.07;99006.94;5079961;28;20230;-80
2022/01/09 03:05:23;;;;;;;6.32;4.20;;;;;;;0.90;95.22;98992.03;5079161;28;20163;-80
2022/01/09 03:07:49;;;;;;;6.03;3.95;;;;;;;0.91;94.97;99004.28;5042445;28;20167;-80
2022/01/09 03:10:17;;;;;;;4.70;4.25;;;;;;;0.91;95.81;99002.50;5079408;28;20185;-79
2022/01/09 03:12:43;;;;;;;5.57;3.78;;;;;;;0.92;95.69;98998.09;5059963;28;20178;-79
2022/01/09 03:15:10;;;;;;;6.03;3.85;;;;;;;0.95;95.47;98995.38;5077854;28;20170;-80
2022/01/09 03:17:36;;;;;;;6.03;3.75;;;;;;;0.95;95.56;99000.66;5077090;28;20202;-80
2022/01/09 03:20:04;;;;;;;6.55;4.28;;;;;;;0.95;95.69;98995.38;5043206;28;20194;-80
2022/01/09 03:22:29;;;;;;;6.18;4.50;;;;;;;0.95;95.65;98990.09;5060128;28;20175;-80
2022/01/09 03:24:55;;;;;;;5.88;3.83;;;;;;;1.01;95.87;99000.47;5061481;28;20642;-79
2022/01/09 03:27:21;;;;;;;8.00;4.70;;;;;;;0.98;95.88;98993.53;5060458;28;20174;-78
2022/01/09 03:29:46;;;;;;;6.72;4.22;;;;;;;0.97;96.36;98988.28;5065375;28;20233;-79
2022/01/09 03:32:12;;;;;;;6.22;4.22;;;;;;;0.96;96.16;98997.97;5062254;28;20171;-79
2022/01/09 03:34:38;;;;;;;6.03;4.57;;;;;;;0.95;96.78;98990.97;5059984;28;20183;-78
2022/01/09 03:37:04;;;;;;;6.85;4.60;;;;;;;0.96;97.03;98997.09;5083812;28;20214;-78
2022/01/09 03:39:30;;;;;;;6.72;4.53;;;;;;;0.95;97.35;98992.75;5083202;28;20206;-80
2022/01/09 03:41:58;;;;;;;5.13;4.53;;;;;;;0.90;97.75;99002.56;5078304;28;20495;-80
2022/01/09 03:44:24;;;;;;;6.45;4.75;;;;;;;0.91;98.22;98994.59;5076914;28;20188;-78
2022/01/09 03:46:50;;;;;;;8.48;5.07;;;;;;;0.86;98.88;98995.66;5083209;28;20170;-78
2022/01/09 03:49:15;;;;;;;10.80;5.40;;;;;;;0.85;99.17;98988.63;5062809;28;20574;-80
2022/01/09 03:51:44;;;;;;;6.88;5.60;;;;;;;0.82;99.50;98987.81;5078701;28;20174;-79
2022/01/09 03:54:09;;;;;;;7.15;5.40;;;;;;;0.85;99.57;98986.00;5075751;28;20281;-80
2022/01/09 03:56:35;;;;;;;6.78;4.93;;;;;;;0.83;99.67;98996.56;5077896;28;20210;-80
2022/01/09 03:59:00;;;;;;;8.10;5.57;;;;;;;0.85;99.62;98999.19;5080644;28;20194;-78
2022/01/09 04:01:26;;;;;;;8.95;5.13;;;;;;;0.85;100.00;99000.03;5083075;28;20189;-78
2022/01/09 04:03:51;;;;;;;11.60;5.80;;;;;;;0.85;100.00;98997.41;5082878;28;20194;-79
2022/01/09 04:06:17;;;;;;;9.50;5.97;;;;;;;0.85;100.00;99001.81;5060286;28;20235;-80
2022/01/09 04:08:43;;;;;;;6.15;5.45;;;;;;;0.86;100.00;98993.00;5058865;28;20210;-81
2022/01/09 04:11:12;;;;;;;9.60;5.43;;;;;;;0.86;100.00;99000.91;5059224;28;20647;-81
2022/01/09 04:13:38;;;;;;;7.82;5.38;;;;;;;0.86;100.00;99007.03;5076272;28;20232;-80
2022/01/09 04:16:04;;;;;;;7.05;5.50;;;;;;;0.89;99.93;98995.53;5058134;28;20183;-79
2022/01/09 04:18:31;;;;;;;5.10;4.45;;;;;;;0.88;100.00;99001.75;5075763;28;20198;-80
2022/01/09 04:20:57;;;;;;;8.13;5.05;;;;;;;0.87;100.00;98997.34;5057416;28;20194;-79
2022/01/09 04:23:23;;;;;;;9.25;5.20;;;;;;;0.86;100.00;98999.13;5074206;28;20236;-78
2022/01/09 04:25:48;;;;;;;6.50;5.25;;;;;;;0.90;100.00;98992.03;5072949;28;20591;-80
2022/01/09 04:28:15;;;;;;;9.13;5.47;;;;;;;0.86;100.00;98995.66;5074860;28;20292;-79
2022/01/09 04:30:41;;;;;;;6.22;5.60;;;;;;;0.87;100.00;99002.63;5056837;28;20187;-80
2022/01/09 04:33:08;;;;;;;7.63;5.88;;;;;;;0.84;100.00;98993.03;5075389;28;20217;-78
2022/01/09 04:35:34;;;;;;;10.00;6.00;;;;;;;0.85;100.00;98997.41;5062460;28;20174;-78
2022/01/09 04:38:00;;;;;;;8.68;5.50;;;;;;;0.83;100.00;99004.47;5046628;28;20204;-78
2022/01/09 04:40:26;;;;;;;7.78;5.88;;;;;;;0.84;100.00;99003.59;5081982;28;20337;-79
2022/01/09 04:42:58;;;;;;;8.10;5.60;;;;;;;0.81;100.00;98996.63;5081941;28;20222;-78
2022/01/09 04:45:25;;;;;;;8.48;5.55;;;;;;;0.77;100.00;98997.63;5081983;28;20171;-79
2022/01/09 04:47:51;;;;;;;8.50;5.70;;;;;;;0.79;100.00;99000.22;5080058;28;20222;-80
2022/01/09 04:50:25;;;;;;;7.90;5.57;;;;;;;0.78;100.00;98999.34;5054140;28;20622;-79
2022/01/09 04:53:04;;;;;;;9.52;6.40;;;;;;;0.79;100.00;99002.88;5054577;28;20554;-80
2022/01/09 04:55:30;;;;;;;7.60;5.82;;;;;;;0.75;100.00;98998.59;5072282;28;20659;-83
2022/01/09 04:57:56;;;;;;;7.50;5.88;;;;;;;0.74;100.00;99002.09;5056196;28;20593;-80
2022/01/09 05:00:22;;;;;;;8.05;6.25;;;;;;;0.72;100.00;98994.25;5056151;28;20183;-80
2022/01/09 05:02:48;;;;;;;8.27;5.78;;;;;;;0.73;100.00;99005.66;5079848;28;20257;-79
2022/01/09 05:05:14;;;;;;;9.82;6.07;;;;;;;0.68;100.00;99005.78;5058902;28;20254;-81
2022/01/09 05:07:41;;;;;;;9.15;6.20;;;;;;;0.62;100.00;99000.69;5056032;28;20232;-80
2022/01/09 05:10:08;;;;;;;7.00;6.30;;;;;;;0.60;100.00;99013.91;5058032;28;20187;-79
2022/01/09 05:12:34;;;;;;;8.55;6.53;;;;;;;0.65;100.00;99012.91;5057150;28;20170;-80
2022/01/09 05:14:59;;;;;;;7.45;6.28;;;;;;;0.59;100.00;99009.53;5057299;28;20174;-81
2022/01/09 05:17:25;;;;;;;12.40;7.18;;;;;;;0.61;100.00;99013.00;5075351;28;20190;-80
2022/01/09 05:19:52;;;;;;;8.63;6.30;;;;;;;0.59;100.00;99009.53;5040303;28;20261;-83
2022/01/09 05:22:18;;;;;;;8.90;6.13;;;;;;;0.60;100.00;99023.56;5074963;28;20651;-79
2022/01/09 05:24:43;;;;;;;7.80;6.18;;;;;;;0.60;100.00;99026.22;5057173;28;20174;-79
2022/01/09 05:27:09;;;;;;;11.55;6.93;;;;;;;0.58;100.00;99023.59;5074022;28;20696;-79
2022/01/09 05:29:34;;;;;;;12.10;6.35;;;;;;;0.60;100.00;99020.94;5056306;28;20702;-80
2022/01/09 05:32:00;;;;;;;8.75;7.13;;;;;;;0.57;100.00;99015.78;5075342;28;20247;-80
2022/01/09 05:34:25;;;;;;;10.48;7.22;;;;;;;0.52;100.00;99017.63;5060501;28;20258;-79
2022/01/09 05:36:51;;;;;;;8.43;6.95;;;;;;;0.54;100.00;99010.56;5077948;28;20585;-80
2022/01/09 05:39:16;;;;;;;10.73;7.43;;;;;;;0.53;100.00;99009.69;5076749;28;20754;-80
2022/01/09 05:41:44;;;;;;;12.32;7.53;;;;;;;0.59;100.00;99020.09;5060491;28;20221;-81
2022/01/09 05:44:09;;;;;;;9.95;7.30;;;;;;;0.52;100.00;99007.09;5082206;28;20272;-79
2022/01/09 05:46:35;;;;;;;7.57;6.40;;;;;;;0.56;100.00;99014.03;5085335;28;20206;-81
2022/01/09 05:49:00;;;;;;;9.75;6.93;;;;;;;0.57;100.00;99014.00;5050726;28;20202;-79
2022/01/09 05:51:26;;;;;;;10.65;6.88;;;;;;;0.56;100.00;99017.50;5087824;28;20224;-79
2022/01/09 05:53:51;;;;;;;9.55;6.65;;;;;;;0.56;100.00;99024.56;5086705;28;20527;-79
2022/01/09 05:56:17;;;;;;;9.13;7.00;;;;;;;0.55;100.00;99026.34;5063481;28;20291;-83
2022/01/09 05:58:42;;;;;;;9.27;7.13;;;;;;;0.55;100.00;99030.75;5082079;28;20199;-80
2022/01/09 06:01:08;;;;;;;9.95;7.15;;;;;;;0.56;100.00;99024.56;5048486;28;20190;-79
2022/01/09 06:03:34;;;;;;;10.30;6.63;;;;;;;0.57;100.00;99031.56;5062894;28;20167;-80
2022/01/09 06:05:59;;;;;;;10.23;6.70;;;;;;;0.59;100.00;99027.09;5077893;28;20662;-80
2022/01/09 06:08:25;;;;;;;12.02;7.15;;;;;;;0.62;100.00;99027.03;5058870;28;20203;-80
2022/01/09 06:10:50;;;;;;;10.18;6.80;;;;;;;0.61;100.00;99033.19;5083036;28;20537;-80
2022/01/09 06:13:16;;;;;;;7.00;6.28;;;;;;;0.64;100.00;99033.13;5077648;28;20193;-80
2022/01/09 06:15:41;;;;;;;10.95;6.57;;;;;;;0.65;100.00;99031.34;5081855;28;20170;-80
2022/01/09 06:18:06;;;;;;;9.95;6.35;;;;;;;0.64;100.00;99041.03;5069927;28;20205;-78
2022/01/09 06:20:32;;;;;;;7.88;6.57;;;;;;;0.64;100.00;99043.69;5066956;28;20196;-80
2022/01/09 06:22:57;;;;;;;12.13;6.57;;;;;;;0.60;100.00;99055.19;5078241;28;20167;-80
2022/01/09 06:25:23;;;;;;;9.95;6.53;;;;;;;0.63;100.00;99051.63;5077232;28;20174;-81
2022/01/09 06:27:49;;;;;;;10.02;6.70;;;;;;;0.55;100.00;99047.41;5058697;28;20163;-80
2022/01/09 06:30:15;;;;;;;12.05;7.82;;;;;;;0.52;100.00;99050.13;5077842;28;20171;-80
2022/01/09 06:32:40;;;;;;;7.60;6.80;;;;;;;0.53;100.00;99053.63;5059284;28;20206;-80
2022/01/09 06:35:07;;;;;;;11.68;7.40;;;;;;;0.53;100.00;99058.91;5059499;28;20178;-80
2022/01/09 06:37:32;;;;;;;11.20;7.60;;;;;;;0.52;100.00;99065.94;5076345;28;20253;-81
2022/01/09 06:39:58;;;;;;;11.48;7.63;;;;;;;0.50;100.00;99074.78;5076801;28;20663;-80
2022/01/09 06:42:31;;;;;;;9.05;7.18;;;;;;;0.50;100.00;99074.78;5058691;28;20167;-81
2022/01/09 06:44:57;;;;;;;12.18;7.70;;;;;;;0.46;100.00;99073.13;5058569;28;20227;-81
2022/01/09 06:47:22;;;;;;;12.52;7.97;;;;;;;0.44;100.00;99078.44;5082791;28;20308;-79
2022/01/09 06:49:48;;;;;;;8.70;7.55;;;;;;;0.39;100.00;99078.56;5085151;28;20234;-79
2022/01/09 06:52:13;;;;;;;12.73;7.55;;;;;;;0.40;100.00;99080.28;5084953;28;20345;-80
2022/01/09 06:54:39;;;;;;;9.10;7.50;;;;;;;0.38;100.00;99089.13;5065882;28;20604;-79
2022/01/09 06:57:04;;;;;;;9.73;7.47;;;;;;;0.39;100.00;99086.47;5046468;28;20215;-80
2022/01/09 06:59:30;;;;;;;8.98;7.82;;;;;;;0.37;100.00;99095.28;5064152;28;20393;-80
2022/01/09 07:01:55;;;;;;;9.95;7.78;;;;;;;0.31;100.00;99088.44;5063828;28;20256;-79
2022/01/09 07:04:20;;;;;;;12.43;8.25;;;;;;;0.33;100.00;99098.94;5037403;28;20187;-82
2022/01/09 07:06:46;;;;;;;11.10;7.47;;;;;;;0.29;100.00;99098.13;5055448;28;20220;-81
2022/01/09 07:09:11;;;;;;;10.45;7.93;;;;;;;0.29;100.00;99103.41;5037764;28;20210;-81
2022/01/09 07:11:37;;;;;;;11.27;7.82;;;;;;;0.24;100.00;99097.38;5055782;28;20548;-82
2022/01/09 07:14:02;;;;;;;10.73;8.25;;;;;;;0.23;100.00;99105.31;5038020;28;20175;-81
2022/01/09 07:16:28;;;;;;;9.35;8.30;;;;;;;0.19;100.00;99105.38;5037847;28;20187;-81
2022/01/09 07:18:54;;;;;;;11.13;8.73;;;;;;;0.24;100.00;99107.03;5056245;28;20234;-80
2022/01/09 07:21:19;;;;;;;11.13;8.85;;;;;;;0.18;100.00;99113.34;5022080;28;20167;-80
2022/01/09 07:23:45;;;;;;;9.73;8.75;;;;;;;0.16;100.00;99110.72;5038340;28;20195;-80
2022/01/09 07:26:10;;;;;;;12.88;8.65;;;;;;;0.18;100.00;99110.69;5037351;28;20178;-81
2022/01/09 07:28:35;;;;;;;11.38;8.52;;;;;;;0.15;100.00;99116.91;5057478;28;20194;-80
2022/01/09 07:31:01;;;;;;;10.82;8.35;;;;;;;0.18;100.00;99111.56;5057693;28;20182;-80
2022/01/09 07:33:28;;;;;;;10.20;8.55;;;;;;;0.18;100.00;99121.22;5072484;28;20171;-80
2022/01/09 07:35:53;;;;;;;13.30;9.15;;;;;;;0.15;100.00;99113.38;5078813;28;20224;-79
2022/01/09 07:38:19;;;;;;;11.95;8.93;;;;;;;0.14;100.00;99130.09;5056756;28;20206;-80
2022/01/09 07:40:47;;;;;;;13.13;8.95;;;;;;;0.14;100.00;99130.09;5073324;28;20359;-79
2022/01/09 07:43:13;;;;;;;12.98;8.95;;;;;;;0.12;100.00;99130.13;5081295;28;20246;-80
2022/01/09 07:45:39;;;;;;;9.77;8.77;;;;;;;0.10;100.00;99138.97;5038999;28;20171;-79
2022/01/09 07:48:06;;;;;;;10.02;8.80;;;;;;;0.05;100.00;99132.94;5073923;28;20186;-79
2022/01/09 07:50:31;;;;;;;10.98;9.32;;;;;;;0.17;100.00;99137.91;5072834;28;20194;-79
2022/01/09 07:52:57;;;;;;;11.82;9.90;;;;;;;0.09;100.00;99138.09;5057281;28;20175;-79
2022/01/09 07:55:23;;;;;;;12.73;9.05;;;;;;;0.28;100.00;99143.78;5081919;28;20174;-79
2022/01/09 07:57:50;;;;;;;11.90;9.80;;;;;;;0.13;100.00;99137.16;5081859;28;20195;-78
2022/01/09 08:00:17;;;;;;;12.40;9.85;;;;;;;0.34;100.00;99146.28;5081770;28;20261;-80
2022/01/09 08:02:43;;;;;;;15.00;11.60;;;;;;;0.29;100.00;99142.91;5059583;28;20201;-79
2022/01/09 08:05:10;;;;;;;13.65;10.85;;;;;;;0.32;100.00;99139.34;5074746;28;20210;-80
2022/01/09 08:07:35;;;;;;;11.02;9.43;;;;;;;0.18;100.00;99155.47;5072008;28;20224;-80
2022/01/09 08:10:01;;;;;;;13.95;9.98;;;;;;;0.14;100.00;99159.06;5053228;28;20746;-79
2022/01/09 08:12:26;;;;;;;9.77;8.77;;;;;;;0.09;100.00;99155.66;5071851;28;20655;-79
2022/01/09 08:14:52;;;;;;;12.15;10.85;;;;;;;0.07;100.00;99160.97;5037280;28;20167;-81
2022/01/09 08:17:17;;;;;;;12.73;10.45;;;;;;;0.04;100.00;99157.53;5072303;28;20193;-79
2022/01/09 08:19:43;;;;;;;12.68;10.07;;;;;;;0.06;100.00;99161.00;5053918;28;20241;-79
2022/01/09 08:22:09;;;;;;;12.63;8.80;;;;;;;0.04;100.00;99161.03;5071907;28;20178;-80
2022/01/09 08:24:36;;;;;;;14.00;10.43;;;;;;;0.02;100.00;99160.19;5053399;28;20612;-79
2022/01/09 08:27:02;;;;;;;11.38;9.68;;;;;;;0.02;100.00;99156.69;5070520;28;20237;-79
2022/01/09 08:29:28;;;;;;;12.23;9.55;;;;;;;-0.04;100.00;99160.34;5071674;28;20247;-78
2022/01/09 08:31:53;;;;;;;12.77;10.10;;;;;;;-0.01;100.00;99171.66;5051740;28;20177;-79
2022/01/09 08:34:19;;;;;;;10.95;9.82;;;;;;;0.02;100.00;99161.97;5070740;28;20159;-78
2022/01/09 08:36:47;;;;;;;12.80;9.73;;;;;;;0.05;100.00;99161.91;5037370;28;20202;-79
2022/01/09 08:39:17;;;;;;;11.32;9.75;;;;;;;0.12;100.00;99174.88;5074184;28;20271;-79
2022/01/09 08:41:43;;;;;;;12.25;9.65;;;;;;;0.04;100.00;99176.81;5072056;28;20178;-79
2022/01/09 08:44:09;;;;;;;15.50;10.82;;;;;;;0.05;100.00;99177.72;5052938;28;20174;-79
2022/01/09 08:46:35;;;;;;;12.13;10.15;;;;;;;0.07;100.00;99182.03;5053525;28;20201;-79
2022/01/09 08:49:02;;;;;;;13.25;9.43;;;;;;;0.16;100.00;99179.19;5058628;28;20198;-79
2022/01/09 08:51:29;;;;;;;11.18;9.82;;;;;;;0.13;100.00;99173.13;5058472;28;20170;-78
2022/01/09 08:53:57;;;;;;;12.68;10.43;;;;;;;0.10;100.00;99189.00;5073788;28;20185;-79
2022/01/09 08:56:25;;;;;;;12.20;10.30;;;;;;;0.17;100.00;99185.31;5057580;28;20243;-79
2022/01/09 08:58:51;;;;;;;12.65;9.88;;;;;;;0.19;100.00;99197.53;5056232;28;20222;-79
2022/01/09 09:01:17;;;;;;;12.25;9.38;;;;;;;0.22;100.00;99187.84;5071638;28;20198;-79
2022/01/09 09:03:44;;;;;;;10.95;9.73;;;;;;;0.26;100.00;99194.78;5055433;28;20183;-79
2022/01/09 09:06:11;;;;;;;11.52;9.57;;;;;;;0.28;100.00;99199.09;5040004;28;20212;-79
2022/01/09 09:08:37;;;;;;;11.30;10.13;;;;;;;0.29;100.00;99214.03;5040299;28;20213;-79
2022/01/09 09:11:04;;;;;;;10.77;9.65;;;;;;;0.28;100.00;99199.09;5074912;28;20531;-79
2022/01/09 09:13:29;;;;;;;11.98;10.15;;;;;;;0.34;100.00;99212.16;5073671;28;20209;-79
2022/01/09 09:15:55;;;;;;;10.25;9.13;;;;;;;0.35;100.00;99213.00;5074149;28;20174;-79
2022/01/09 09:18:21;;;;;;;11.38;9.77;;;;;;;0.36;100.00;99210.34;5065263;28;20250;-79
2022/01/09 09:20:47;;;;;;;11.90;10.57;;;;;;;0.41;100.00;99213.72;5057795;28;20251;-79
2022/01/09 09:23:12;;;;;;;11.88;10.68;;;;;;;0.36;100.00;99217.38;5071551;28;20554;-79
2022/01/09 09:25:38;;;;;;;11.02;10.00;;;;;;;0.44;100.00;99219.84;5051386;28;20549;-79
2022/01/09 09:28:03;;;;;;;11.45;10.32;;;;;;;0.43;100.00;99224.25;5039840;28;20171;-79
2022/01/09 09:30:29;;;;;;;12.55;9.73;;;;;;;0.46;100.00;99220.66;5051069;28;20159;-80
2022/01/09 09:32:55;;;;;;;11.35;10.13;;;;;;;0.52;100.00;99231.94;5015270;28;20589;-78
2022/01/09 09:35:20;;;;;;;11.65;10.27;;;;;;;0.53;100.00;99225.78;5049829;28;20176;-77
2022/01/09 09:37:46;;;;;;;11.50;10.40;;;;;;;0.61;100.00;99229.09;5014019;28;20226;-78
2022/01/09 09:40:12;;;;;;;12.25;9.77;;;;;;;0.51;100.00;99243.38;5050084;28;20163;-77
2022/01/09 09:42:37;;;;;;;10.98;9.88;;;;;;;0.55;100.00;99247.69;5051170;28;20179;-79
2022/01/09 09:45:05;;;;;;;13.10;9.65;;;;;;;0.60;100.00;99250.22;5036919;28;20197;-78
2022/01/09 09:47:33;;;;;;;10.45;9.02;;;;;;;0.56;100.00;99245.91;5051858;28;20163;-78
2022/01/09 09:49:58;;;;;;;10.50;9.40;;;;;;;0.57;100.00;99250.28;5070889;28;20614;-78
2022/01/09 09:52:25;;;;;;;10.38;9.38;;;;;;;0.51;100.00;99259.19;5069660;28;20179;-79
2022/01/09 09:54:51;;;;;;;9.38;8.57;;;;;;;0.52;100.00;99258.28;5070907;28;20175;-78
2022/01/09 09:57:17;;;;;;;10.48;9.40;;;;;;;0.57;100.00;99259.06;5052149;28;20195;-78
2022/01/09 09:59:42;;;;;;;12.00;9.48;;;;;;;0.69;100.00;99250.00;5069821;28;20194;-78
2022/01/09 10:02:12;;;;;;;11.45;10.00;;;;;;;0.64;100.00;99251.88;5070499;28;20689;-79
2022/01/09 10:04:57;;;;;;;12.02;9.40;;;;;;;0.60;100.00;99260.75;5052955;28;20287;-78
2022/01/09 10:07:25;;;;;;;33.50;18.42;;;;;;;0.63;100.00;99260.66;5035453;28;20175;-78
2022/01/09 10:09:53;;;;;;;14.27;11.15;;;;;;;0.57;100.00;99258.19;5055421;28;20258;-76
2022/01/09 10:12:27;;;;;;;13.90;10.30;;;;;;;0.63;100.00;99263.31;5070753;28;20186;-78
2022/01/09 10:14:55;;;;;;;10.23;9.23;;;;;;;0.59;100.00;99270.44;5041567;28;20328;-77
2022/01/09 10:17:21;;;;;;;11.18;10.07;;;;;;;0.59;100.00;99267.78;5070102;28;20728;-77
2022/01/09 10:19:50;;;;;;;11.32;10.23;;;;;;;0.65;100.00;99266.78;5072215;28;20273;-77
2022/01/09 10:22:21;;;;;;;10.48;9.32;;;;;;;0.71;100.00;99268.41;5074030;28;20166;-77
2022/01/09 10:24:47;;;;;;;11.27;10.10;;;;;;;0.66;100.00;99268.53;5074010;28;20178;-78
2022/01/09 10:27:26;;;;;;;10.90;9.80;;;;;;;0.68;100.00;99284.28;5073471;28;20159;-78
2022/01/09 10:29:53;;;;;;;9.63;8.73;;;;;;;0.66;100.00;99280.84;5056345;28;20203;-79
2022/01/09 10:32:20;;;;;;;11.00;9.90;;;;;;;0.70;100.00;99278.09;5073601;28;20210;-78
2022/01/09 10:35:10;;;;;;;10.88;9.77;;;;;;;0.74;100.00;99285.00;5073944;28;20169;-78
2022/01/09 10:37:38;;;;;;;10.68;9.43;;;;;;;0.77;100.00;99278.81;5056577;28;20203;-79
2022/01/09 10:40:05;;;;;;;10.73;9.63;;;;;;;0.80;100.00;99286.63;5075117;28;20198;-77
2022/01/09 10:42:32;;;;;;;10.60;9.50;;;;;;;0.81;100.00;99283.97;5056689;28;20166;-77
2022/01/09 10:45:18;;;;;;;10.70;9.60;;;;;;;0.90;100.00;99276.75;5042580;28;20175;-78
2022/01/09 10:47:44;;;;;;;10.75;9.63;;;;;;;0.94;100.00;99292.47;5064961;28;20193;-78
2022/01/09 10:50:10;;;;;;;12.00;10.68;;;;;;;0.98;100.00;99286.22;5077024;28;20190;-77
2022/01/09 10:52:41;;;;;;;11.23;10.02;;;;;;;0.90;100.00;99297.84;5050212;28;20244;-79
2022/01/09 10:55:09;;;;;;;10.82;9.52;;;;;;;0.86;100.00;99293.56;5057832;28;20206;-78
2022/01/09 10:57:39;;;;;;;11.07;9.98;;;;;;;0.86;100.00;99304.09;5039639;28;20756;-77
2022/01/09 11:00:11;;;;;;;11.07;9.98;;;;;;;0.92;100.00;99301.28;5040600;28;20202;-77
2022/01/09 11:02:38;;;;;;;11.98;10.55;;;;;;;1.03;100.00;99307.22;5054192;28;20624;-78
2022/01/09 11:05:06;;;;;;;12.23;10.90;;;;;;;0.99;100.00;99305.53;5063880;28;20166;-79
2022/01/09 11:07:35;;;;;;;11.07;9.77;;;;;;;0.99;100.00;99310.81;5050062;28;20171;-77
2022/01/09 11:10:01;;;;;;;13.70;12.30;;;;;;;1.03;100.00;99325.66;5052651;28;20793;-78
2022/01/09 11:12:34;;;;;;;14.90;12.27;;;;;;;1.03;100.00;99317.75;5035485;28;20185;-78
2022/01/09 11:15:02;;;;;;;12.82;10.55;;;;;;;1.04;100.00;99314.19;5035024;28;20186;-77
2022/01/09 11:17:28;;;;;;;11.68;10.50;;;;;;;1.08;100.00;99321.13;5053765;28;20195;-78
2022/01/09 11:19:54;;;;;;;11.32;9.85;;;;;;;1.08;100.00;99329.06;5035997;28;20206;-78
2022/01/09 11:22:21;;;;;;;11.43;10.23;;;;;;;1.16;100.00;99337.66;5053428;28;20190;-78
2022/01/09 11:25:05;;;;;;;11.80;10.55;;;;;;;1.17;100.00;99343.78;5052852;28;20171;-78
2022/01/09 11:27:37;;;;;;;11.02;10.02;;;;;;;1.23;100.00;99347.16;5019271;28;20171;-78
2022/01/09 11:30:10;;;;;;;10.77;9.75;;;;;;;1.13;100.00;99343.00;5053142;28;20237;-78